createdAt,value
2022-10-24T00:00:43.962Z,100531.03
2022-10-24T00:05:48.267Z,100507.09
2022-10-24T00:10:50.646Z,100503.56
2022-10-24T00:15:53.687Z,100499.47
2022-10-24T00:20:56.171Z,100491.31
2022-10-24T00:26:02.091Z,100494.63
2022-10-24T00:31:06.747Z,100486.66
2022-10-24T00:36:14.582Z,100488.63
2022-10-24T00:41:18.713Z,100487.81
2022-10-24T00:46:21.278Z,100483.44
2022-10-24T00:51:29.408Z,100483.16
2022-10-24T00:56:35.342Z,100480.16
2022-10-24T01:01:38.467Z,100466.28
2022-10-24T01:07:02.831Z,100464.34
2022-10-24T01:12:10.893Z,100442.59
2022-10-24T01:17:31.355Z,100440.16
2022-10-24T01:22:58.636Z,100423.53
2022-10-24T01:28:05.523Z,100417.25
2022-10-24T01:33:17.445Z,100403.09
2022-10-24T01:38:54.571Z,100405.81
2022-10-24T01:44:03.223Z,100381.88
2022-10-24T01:49:18.086Z,100374.50
2022-10-24T01:54:20.986Z,100375.06
2022-10-24T01:59:29.247Z,100367.66
2022-10-24T02:04:33.503Z,100373.38
2022-10-24T02:09:37.536Z,100370.41
2022-10-24T02:15:08.804Z,100365.53
2022-10-24T02:20:11.841Z,100368.50
2022-10-24T02:25:19.943Z,100352.72
2022-10-24T02:30:24.983Z,100343.50
2022-10-24T02:35:29.843Z,100351.91
2022-10-24T02:40:32.787Z,100361.44
2022-10-24T02:45:35.627Z,100356.81
2022-10-24T02:50:40.253Z,100343.50
2022-10-24T02:55:43.105Z,100331.75
2022-10-24T03:00:45.551Z,100319.78
2022-10-24T03:05:47.870Z,100314.84
2022-10-24T03:10:50.216Z,100312.66
2022-10-24T03:15:52.547Z,100310.50
2022-10-24T03:20:54.977Z,100286.00
2022-10-24T03:25:58.034Z,100284.38
2022-10-24T03:31:00.384Z,100281.88
2022-10-24T03:36:02.906Z,100280.78
2022-10-24T03:41:05.521Z,100268.00
2022-10-24T03:46:07.986Z,100267.50
2022-10-24T03:51:10.491Z,100249.00
2022-10-24T03:56:13.184Z,100256.19
2022-10-24T04:01:18.342Z,100255.13
2022-10-24T04:06:20.719Z,100249.91
2022-10-24T04:11:23.463Z,100246.88
2022-10-24T04:16:25.841Z,100253.97
2022-10-24T04:21:28.333Z,100240.69
2022-10-24T04:26:30.766Z,100234.19
2022-10-24T04:31:33.342Z,100226.16
2022-10-24T04:36:35.789Z,100218.75
2022-10-24T04:41:38.136Z,100208.00
2022-10-24T04:46:40.491Z,100197.41
2022-10-24T04:51:42.858Z,100203.66
2022-10-24T04:56:45.200Z,100211.34
2022-10-24T05:01:47.678Z,100225.31
2022-10-24T05:06:50.156Z,100221.09
2022-10-24T05:11:55.448Z,100217.31
2022-10-24T05:16:57.747Z,100235.94
2022-10-24T05:22:00.110Z,100257.09
2022-10-24T05:27:02.483Z,100274.91
2022-10-24T05:32:05.102Z,100280.66
2022-10-24T05:37:07.537Z,100293.50
2022-10-24T05:42:11.383Z,100294.97
2022-10-24T05:47:13.827Z,100287.31
2022-10-24T05:52:16.249Z,100295.72
2022-10-24T05:57:18.723Z,100288.88
2022-10-24T06:02:21.817Z,100294.34
2022-10-24T06:07:24.469Z,100293.19
2022-10-24T06:12:27.471Z,100294.59
2022-10-24T06:17:29.877Z,100292.09
2022-10-24T06:22:32.334Z,100292.59
2022-10-24T06:27:34.618Z,100282.00
2022-10-24T06:32:38.539Z,100282.31
2022-10-24T06:37:47.142Z,100291.31
2022-10-24T06:42:50.577Z,100277.03
2022-10-24T06:47:54.265Z,100263.72
2022-10-24T06:52:57.154Z,100271.56
2022-10-24T06:57:59.487Z,100255.31
2022-10-24T07:03:02.064Z,100268.00
2022-10-24T07:08:04.792Z,100279.94
2022-10-24T07:13:07.143Z,100270.56
2022-10-24T07:18:14.796Z,100284.53
2022-10-24T07:23:18.254Z,100269.31
2022-10-24T07:28:20.660Z,100271.13
2022-10-24T07:33:23.030Z,100275.41
2022-10-24T07:38:25.546Z,100271.88
2022-10-24T07:43:28.113Z,100279.09
2022-10-24T07:48:30.395Z,100279.66
2022-10-24T07:53:33.132Z,100277.44
2022-10-24T07:58:36.166Z,100282.31
2022-10-24T08:03:38.803Z,100255.13
2022-10-24T08:08:41.603Z,100257.59
2022-10-24T08:13:44.383Z,100238.94
2022-10-24T08:18:46.714Z,100219.63
2022-10-24T08:23:52.553Z,100238.91
2022-10-24T08:28:55.772Z,100255.19
2022-10-24T08:33:58.145Z,100259.09
2022-10-24T08:39:01.058Z,100265.38
2022-10-24T08:44:07.660Z,100272.13
2022-10-24T08:49:18.497Z,100260.63
2022-10-24T08:54:29.329Z,100265.22
2022-10-24T08:59:34.217Z,100250.53
2022-10-24T09:04:44.818Z,100248.41
2022-10-24T09:09:51.180Z,100244.16
2022-10-24T09:14:59.322Z,100255.34
2022-10-24T09:20:25.811Z,100239.63
2022-10-24T09:25:34.829Z,100241.44
2022-10-24T09:30:37.913Z,100259.69
2022-10-24T09:35:40.681Z,100260.09
2022-10-24T09:40:51.203Z,100254.63
2022-10-24T09:46:17.740Z,100273.00
2022-10-24T09:51:25.233Z,100256.75
2022-10-24T09:56:42.922Z,100243.84
2022-10-24T10:01:45.727Z,100238.88
2022-10-24T10:06:49.925Z,100252.31
2022-10-24T10:12:03.223Z,100228.59
2022-10-24T10:17:07.502Z,100251.47
2022-10-24T10:22:28.120Z,100251.56
2022-10-24T10:27:37.755Z,100250.84
2022-10-24T10:33:08.692Z,100245.66
2022-10-24T10:38:29.480Z,100250.81
2022-10-24T10:43:55.169Z,100243.22
2022-10-24T10:49:20.607Z,100244.53
2022-10-24T10:54:31.809Z,100232.94
2022-10-24T10:59:34.031Z,100226.03
2022-10-24T11:04:46.664Z,100220.38
2022-10-24T11:09:50.905Z,100240.50
2022-10-24T11:15:05.517Z,100250.97
2022-10-24T11:20:18.635Z,100233.28
2022-10-24T11:25:24.013Z,100235.00
2022-10-24T11:30:41.573Z,100235.38
2022-10-24T11:36:00.092Z,100228.28
2022-10-24T11:41:20.894Z,100219.06
2022-10-24T11:46:27.347Z,100221.19
2022-10-24T11:51:39.742Z,100205.41
2022-10-24T11:56:59.452Z,100202.59
2022-10-24T12:02:07.712Z,100194.72
2022-10-24T12:07:46.991Z,100196.34
2022-10-24T12:13:08.091Z,100195.41
2022-10-24T12:18:23.759Z,100197.78
2022-10-24T12:23:27.823Z,100196.09
2022-10-24T12:28:30.194Z,100200.28
2022-10-24T12:33:32.772Z,100190.72
2022-10-24T12:38:35.145Z,100206.31
2022-10-24T12:43:40.622Z,100200.13
2022-10-24T12:48:44.070Z,100177.41
2022-10-24T12:54:13.604Z,100192.84
2022-10-24T12:59:35.063Z,100204.13
2022-10-24T13:05:04.220Z,100194.28
2022-10-24T13:10:39.322Z,100193.34
2022-10-24T13:15:52.422Z,100205.94
2022-10-24T13:21:15.406Z,100204.50
2022-10-24T13:26:38.609Z,100196.19
2022-10-24T13:31:44.126Z,100185.69
2022-10-24T13:36:48.971Z,100173.28
2022-10-24T13:41:58.207Z,100186.41
2022-10-24T13:47:13.994Z,100192.31
2022-10-24T13:52:20.971Z,100196.31
2022-10-24T13:57:37.565Z,100191.00
2022-10-24T14:02:42.942Z,100186.34
2022-10-24T14:07:45.455Z,100178.28
2022-10-24T14:12:52.009Z,100177.53
2022-10-24T14:18:02.492Z,100181.22
2022-10-24T14:23:29.427Z,100183.44
2022-10-24T14:28:34.859Z,100174.50
2022-10-24T14:33:48.129Z,100170.25
2022-10-24T14:38:52.087Z,100167.59
2022-10-24T14:43:54.631Z,100180.72
2022-10-24T14:48:56.952Z,100159.00
2022-10-24T14:53:59.659Z,100168.66
2022-10-24T14:59:07.384Z,100170.81
2022-10-24T15:04:32.311Z,100171.38
2022-10-24T15:09:34.593Z,100162.97
2022-10-24T15:14:36.814Z,100176.88
2022-10-24T15:19:39.140Z,100172.25
2022-10-24T15:24:44.267Z,100154.75
2022-10-24T15:29:46.978Z,100136.50
2022-10-24T15:34:49.497Z,100154.09
2022-10-24T15:39:54.076Z,100150.19
2022-10-24T15:44:56.400Z,100148.31
2022-10-24T15:49:58.731Z,100133.06
2022-10-24T15:55:01.142Z,100154.88
2022-10-24T16:00:04.600Z,100147.25
2022-10-24T16:05:28.931Z,100167.13
2022-10-24T16:10:31.314Z,100157.50
2022-10-24T16:15:36.390Z,100156.72
2022-10-24T16:20:38.863Z,100162.81
2022-10-24T16:25:41.362Z,100168.28
2022-10-24T16:30:43.943Z,100170.91
2022-10-24T16:35:48.121Z,100170.50
2022-10-24T16:40:50.558Z,100167.25
2022-10-24T16:46:03.315Z,100169.25
2022-10-24T16:51:13.221Z,100159.53
2022-10-24T16:56:15.796Z,100173.22
2022-10-24T17:01:18.449Z,100169.63
2022-10-24T17:06:22.235Z,100162.69
2022-10-24T17:11:45.222Z,100166.94
2022-10-24T17:16:47.013Z,100179.66
2022-10-24T17:21:51.594Z,100183.50
2022-10-24T17:26:54.444Z,100171.53
2022-10-24T17:31:57.519Z,100169.50
2022-10-24T17:37:37.374Z,100166.84
2022-10-24T17:42:40.904Z,100174.63
2022-10-24T17:47:43.879Z,100177.28
2022-10-24T17:52:51.043Z,100188.66
2022-10-24T17:57:53.804Z,100188.75
2022-10-24T18:02:56.148Z,100179.09
2022-10-24T18:07:58.555Z,100154.88
2022-10-24T18:13:02.007Z,100153.34
2022-10-24T18:18:05.447Z,100164.75
2022-10-24T18:23:07.788Z,100166.69
2022-10-24T18:28:10.058Z,100163.41
2022-10-24T18:33:12.449Z,100146.53
2022-10-24T18:38:18.799Z,100146.25
2022-10-24T18:43:21.510Z,100151.09
2022-10-24T18:48:24.226Z,100152.91
2022-10-24T18:53:28.011Z,100149.16
2022-10-24T18:58:30.509Z,100120.50
2022-10-24T19:03:37.032Z,100137.88
2022-10-24T19:08:39.527Z,100134.19
2022-10-24T19:13:43.177Z,100134.59
2022-10-24T19:18:50.201Z,100134.19
2022-10-24T19:23:52.892Z,100140.97
2022-10-24T19:28:55.569Z,100132.25
2022-10-24T19:33:57.899Z,100132.88
2022-10-24T19:39:00.645Z,100130.66
2022-10-24T19:44:03.933Z,100125.19
2022-10-24T19:49:06.286Z,100122.31
2022-10-24T19:54:08.670Z,100124.59
2022-10-24T19:59:12.404Z,100116.16
2022-10-24T20:04:14.848Z,100122.75
2022-10-24T20:09:17.237Z,100118.25
2022-10-24T20:14:19.933Z,100117.13
2022-10-24T20:19:22.334Z,100121.09
2022-10-24T20:24:24.751Z,100103.56
2022-10-24T20:29:27.182Z,100114.41
2022-10-24T20:34:29.479Z,100133.13
2022-10-24T20:39:31.819Z,100121.00
2022-10-24T20:44:34.134Z,100122.19
2022-10-24T20:49:36.434Z,100132.31
2022-10-24T20:54:38.805Z,100128.13
2022-10-24T20:59:41.166Z,100136.41
2022-10-24T21:04:43.849Z,100140.00
2022-10-24T21:09:46.114Z,100143.97
2022-10-24T21:14:48.400Z,100149.31
2022-10-24T21:19:51.686Z,100153.75
2022-10-24T21:24:53.980Z,100155.81
2022-10-24T21:29:56.362Z,100157.88
2022-10-24T21:34:58.731Z,100163.28
2022-10-24T21:40:01.121Z,100168.91
2022-10-24T21:45:03.834Z,100171.22
2022-10-24T21:50:06.463Z,100172.16
2022-10-24T21:55:09.114Z,100173.31
2022-10-24T22:00:12.224Z,100180.84
2022-10-24T22:05:14.930Z,100187.53
2022-10-24T22:10:17.406Z,100186.19
2022-10-24T22:15:19.740Z,100177.91
2022-10-24T22:20:22.031Z,100196.44
2022-10-24T22:25:24.376Z,100197.59
2022-10-24T22:30:26.765Z,100203.38
2022-10-24T22:35:29.556Z,100199.91
2022-10-24T22:40:32.633Z,100193.22
2022-10-24T22:45:35.237Z,100192.81
2022-10-24T22:50:46.555Z,100206.91
2022-10-24T22:55:51.520Z,100202.63
2022-10-24T23:01:02.670Z,100207.81
2022-10-24T23:06:14.349Z,100208.84
2022-10-24T23:11:16.882Z,100204.19
2022-10-24T23:16:31.164Z,100206.91
2022-10-24T23:21:41.865Z,100205.41
2022-10-24T23:27:11.991Z,100209.47
2022-10-24T23:32:22.402Z,100206.41
2022-10-24T23:37:51.235Z,100222.63
2022-10-24T23:42:53.927Z,100226.44
2022-10-24T23:48:20.402Z,100221.94
2022-10-24T23:53:50.287Z,100233.81
2022-10-24T23:58:53.073Z,100223.44
